createdAt,value
2018-03-07T00:00:35.836Z,9.70
2018-03-07T00:03:02.152Z,9.70
2018-03-07T00:05:28.428Z,9.80
2018-03-07T00:07:55.490Z,9.40
2018-03-07T00:10:21.736Z,9.50
2018-03-07T00:12:48.052Z,9.70
2018-03-07T00:15:14.360Z,9.40
2018-03-07T00:17:40.748Z,9.80
2018-03-07T00:20:07.076Z,9.50
2018-03-07T00:22:33.381Z,9.30
2018-03-07T00:24:59.677Z,9.20
2018-03-07T00:27:25.936Z,9.20
2018-03-07T00:29:52.200Z,9.20
2018-03-07T00:32:18.480Z,9.40
2018-03-07T00:34:45.520Z,9.20
2018-03-07T00:37:11.800Z,9.30
2018-03-07T00:39:38.140Z,9.20
2018-03-07T00:42:04.428Z,9.50
2018-03-07T00:44:30.726Z,9.30
2018-03-07T00:46:57.001Z,9.40
2018-03-07T00:49:23.320Z,9.10
2018-03-07T00:51:49.592Z,9.30
2018-03-07T00:54:15.933Z,9.40
2018-03-07T00:56:42.181Z,9.80
2018-03-07T00:59:08.480Z,9.70
2018-03-07T01:01:34.812Z,9.80
2018-03-07T01:04:01.080Z,9.50
2018-03-07T01:06:28.140Z,9.40
2018-03-07T01:08:55.175Z,9.50
2018-03-07T01:11:21.460Z,9.50
2018-03-07T01:13:47.745Z,9.30
2018-03-07T01:16:14.764Z,9.40
2018-03-07T01:18:41.046Z,9.40
2018-03-07T01:21:07.348Z,9.80
2018-03-07T01:23:34.339Z,9.40
2018-03-07T01:26:00.619Z,9.60
2018-03-07T01:28:26.868Z,9.10
2018-03-07T01:30:53.922Z,9.20
2018-03-07T01:33:20.191Z,9.30
2018-03-07T01:35:46.476Z,9.00
2018-03-07T01:38:13.448Z,8.80
2018-03-07T01:40:39.788Z,8.90
2018-03-07T01:43:06.089Z,8.90
2018-03-07T01:45:32.365Z,8.70
2018-03-07T01:47:58.640Z,8.80
2018-03-07T01:50:25.632Z,8.70
2018-03-07T01:52:52.656Z,9.10
2018-03-07T01:55:18.917Z,9.00
2018-03-07T01:57:45.180Z,8.80
2018-03-07T02:00:11.448Z,8.80
2018-03-07T02:02:37.727Z,9.00
2018-03-07T02:05:03.991Z,8.90
2018-03-07T02:07:30.320Z,8.60
2018-03-07T02:09:56.613Z,8.40
2018-03-07T02:12:22.862Z,8.50
2018-03-07T02:14:49.128Z,8.60
2018-03-07T02:17:15.424Z,8.40
2018-03-07T02:19:42.416Z,8.40
2018-03-07T02:22:08.688Z,8.40
2018-03-07T02:24:35.707Z,8.40
2018-03-07T02:27:02.022Z,8.50
2018-03-07T02:29:28.340Z,8.50
2018-03-07T02:31:54.614Z,8.10
2018-03-07T02:34:20.961Z,8.40
2018-03-07T02:36:47.199Z,8.60
2018-03-07T02:39:14.225Z,8.40
2018-03-07T02:41:40.463Z,8.40
2018-03-07T02:44:07.480Z,8.50
2018-03-07T02:46:33.740Z,8.50
2018-03-07T02:48:59.972Z,8.20
2018-03-07T02:51:27.008Z,8.50
2018-03-07T02:53:54.627Z,8.50
2018-03-07T02:56:20.894Z,8.30
2018-03-07T02:58:47.190Z,8.30
2018-03-07T03:01:13.473Z,8.50
2018-03-07T03:03:40.495Z,8.50
2018-03-07T03:06:06.765Z,8.10
2018-03-07T03:08:33.063Z,8.60
2018-03-07T03:10:59.323Z,8.60
2018-03-07T03:13:26.361Z,8.50
2018-03-07T03:15:53.389Z,8.70
2018-03-07T03:20:51.057Z,8.70
2018-03-07T03:23:17.317Z,8.90
2018-03-07T03:25:43.568Z,8.70
2018-03-07T03:28:09.853Z,8.90
2018-03-07T03:30:36.082Z,8.30
2018-03-07T03:33:03.251Z,8.20
2018-03-07T03:35:30.292Z,8.50
2018-03-07T03:37:56.609Z,8.60
2018-03-07T03:40:22.888Z,8.50
2018-03-07T03:42:49.873Z,8.40
2018-03-07T03:45:16.148Z,8.40
2018-03-07T03:47:43.521Z,8.30
2018-03-07T03:50:09.777Z,8.30
2018-03-07T03:52:36.088Z,8.10
2018-03-07T03:55:02.396Z,8.00
2018-03-07T03:57:29.427Z,8.50
2018-03-07T03:59:56.407Z,8.20
2018-03-07T04:02:22.705Z,8.10
2018-03-07T04:04:49.707Z,8.10
2018-03-07T04:07:15.959Z,8.00
2018-03-07T04:09:43.039Z,8.20
2018-03-07T04:12:09.329Z,8.20
2018-03-07T04:14:35.680Z,8.20
2018-03-07T04:17:02.744Z,8.10
2018-03-07T04:19:29.786Z,7.70
2018-03-07T04:21:56.807Z,8.00
2018-03-07T04:24:23.126Z,7.70
2018-03-07T04:26:49.391Z,8.00
2018-03-07T04:29:15.679Z,7.80
2018-03-07T04:31:43.254Z,7.50
2018-03-07T04:34:09.574Z,7.90
2018-03-07T04:36:35.890Z,7.80
2018-03-07T04:39:03.767Z,7.50
2018-03-07T04:41:30.101Z,7.40
2018-03-07T04:43:56.372Z,7.20
2018-03-07T04:46:22.629Z,7.10
2018-03-07T04:48:48.904Z,7.30
2018-03-07T04:51:16.112Z,7.30
2018-03-07T04:53:42.407Z,7.60
2018-03-07T04:56:08.702Z,7.40
2018-03-07T04:58:34.960Z,7.20
2018-03-07T05:01:01.313Z,7.30
2018-03-07T05:03:27.587Z,7.10
2018-03-07T05:05:53.870Z,6.80
2018-03-07T05:08:20.912Z,6.70
2018-03-07T05:10:47.935Z,6.90
2018-03-07T05:13:14.251Z,6.80
2018-03-07T05:15:40.540Z,6.70
2018-03-07T05:18:06.840Z,6.80
2018-03-07T05:20:33.105Z,6.90
2018-03-07T05:22:59.378Z,6.90
2018-03-07T05:25:25.648Z,6.90
2018-03-07T05:27:52.680Z,6.90
2018-03-07T05:30:18.963Z,6.90
2018-03-07T05:32:45.243Z,6.50
2018-03-07T05:35:12.294Z,6.70
2018-03-07T05:37:39.331Z,6.70
2018-03-07T05:40:05.667Z,6.50
2018-03-07T05:42:32.656Z,6.80
2018-03-07T05:44:58.915Z,6.60
2018-03-07T05:47:25.167Z,6.50
2018-03-07T05:49:51.437Z,6.60
2018-03-07T05:52:17.752Z,6.50
2018-03-07T05:54:44.019Z,6.50
2018-03-07T05:57:10.304Z,6.50
2018-03-07T05:59:37.315Z,6.80
2018-03-07T06:02:03.611Z,6.70
2018-03-07T06:04:29.994Z,6.60
2018-03-07T06:06:57.058Z,6.90
2018-03-07T06:09:24.079Z,6.50
2018-03-07T06:11:50.361Z,6.70
2018-03-07T06:14:16.655Z,6.50
2018-03-07T06:16:42.921Z,6.50
2018-03-07T06:19:09.211Z,6.20
2018-03-07T06:21:36.212Z,6.20
2018-03-07T06:24:02.532Z,5.90
2018-03-07T06:26:28.862Z,5.80
2018-03-07T06:28:55.144Z,5.90
2018-03-07T06:31:21.451Z,5.70
2018-03-07T06:33:47.712Z,5.90
2018-03-07T06:36:14.037Z,5.90
2018-03-07T06:38:40.314Z,5.80
2018-03-07T06:41:06.626Z,5.90
2018-03-07T06:43:32.945Z,5.90
2018-03-07T06:45:59.959Z,6.30
2018-03-07T06:48:26.288Z,6.10
2018-03-07T06:50:52.552Z,6.40
2018-03-07T06:53:19.620Z,6.50
2018-03-07T06:55:45.899Z,6.50
2018-03-07T06:58:12.150Z,6.50
2018-03-07T07:00:38.409Z,7.20
2018-03-07T07:03:04.760Z,7.30
2018-03-07T07:05:31.043Z,7.00
2018-03-07T07:07:57.326Z,7.80
2018-03-07T07:10:23.572Z,7.50
2018-03-07T07:12:49.889Z,7.40
2018-03-07T07:15:16.191Z,7.30
2018-03-07T07:17:42.634Z,7.60
2018-03-07T07:20:08.879Z,7.90
2018-03-07T07:22:35.248Z,8.00
2018-03-07T07:25:01.614Z,8.60
2018-03-07T07:27:27.927Z,8.90
2018-03-07T07:29:54.983Z,10.20
2018-03-07T07:32:22.001Z,9.70
2018-03-07T07:34:48.392Z,9.80
2018-03-07T07:37:14.719Z,8.80
2018-03-07T07:39:41.009Z,8.80
2018-03-07T07:42:07.339Z,9.20
2018-03-07T07:44:34.348Z,8.80
2018-03-07T07:47:00.668Z,9.00
2018-03-07T07:49:27.050Z,9.50
2018-03-07T07:51:54.201Z,9.80
2018-03-07T07:54:21.220Z,10.00
2018-03-07T07:56:47.527Z,9.90
2018-03-07T07:59:13.884Z,10.20
2018-03-07T08:01:40.151Z,10.60
2018-03-07T08:04:07.156Z,9.20
2018-03-07T08:06:33.408Z,9.10
2018-03-07T08:08:59.636Z,9.50
2018-03-07T08:11:25.925Z,8.90
2018-03-07T08:13:52.200Z,8.60
2018-03-07T08:16:19.273Z,8.00
2018-03-07T08:18:45.568Z,7.70
2018-03-07T08:21:11.835Z,7.60
2018-03-07T08:23:38.844Z,8.50
2018-03-07T08:26:05.083Z,8.50
2018-03-07T08:28:31.360Z,8.60
2018-03-07T08:30:57.618Z,8.10
2018-03-07T08:33:23.912Z,7.90
2018-03-07T08:35:50.199Z,8.00
2018-03-07T08:38:16.488Z,8.20
2018-03-07T08:40:42.793Z,8.20
2018-03-07T08:43:09.040Z,8.50
2018-03-07T08:45:35.335Z,8.40
2018-03-07T08:48:02.380Z,8.10
2018-03-07T08:50:29.448Z,8.20
2018-03-07T08:52:56.467Z,8.30
2018-03-07T08:55:22.780Z,8.10
2018-03-07T08:57:49.036Z,7.80
2018-03-07T09:00:16.039Z,8.20
2018-03-07T09:02:43.092Z,7.70
2018-03-07T09:05:09.347Z,7.70
2018-03-07T09:07:35.627Z,7.80
2018-03-07T09:10:01.907Z,8.10
2018-03-07T09:12:28.174Z,7.80
2018-03-07T09:14:54.433Z,7.80
2018-03-07T09:17:20.683Z,8.00
2018-03-07T09:19:46.988Z,7.70
2018-03-07T09:22:13.980Z,7.70
2018-03-07T09:24:41.032Z,7.80
2018-03-07T09:27:07.253Z,7.90
2018-03-07T09:29:33.520Z,7.90
2018-03-07T09:31:59.811Z,7.90
2018-03-07T09:34:26.056Z,7.60
2018-03-07T09:36:53.091Z,7.80
2018-03-07T09:39:20.123Z,7.70
2018-03-07T09:41:47.207Z,7.80
2018-03-07T09:44:14.192Z,7.60
2018-03-07T09:46:40.521Z,7.90
2018-03-07T09:49:06.848Z,7.80
2018-03-07T09:51:33.156Z,7.30
2018-03-07T09:53:59.456Z,7.60
2018-03-07T09:56:25.840Z,7.40
2018-03-07T09:58:52.137Z,7.40
2018-03-07T10:01:18.459Z,7.30
2018-03-07T10:03:45.506Z,7.50
2018-03-07T10:06:12.608Z,7.50
2018-03-07T10:08:38.897Z,7.60
2018-03-07T10:11:05.965Z,7.40
2018-03-07T10:13:32.276Z,7.50
2018-03-07T10:15:58.635Z,7.40
2018-03-07T10:18:24.933Z,7.00
2018-03-07T10:20:52.010Z,7.10
2018-03-07T10:23:18.311Z,7.10
2018-03-07T10:25:45.292Z,6.90
2018-03-07T10:28:11.580Z,7.00
2018-03-07T10:30:38.576Z,7.20
2018-03-07T10:33:11.002Z,7.10
2018-03-07T10:35:38.010Z,7.60
2018-03-07T10:38:04.648Z,7.80
2018-03-07T10:40:30.940Z,7.60
2018-03-07T10:42:57.200Z,8.30
2018-03-07T10:45:23.532Z,9.10
2018-03-07T10:47:49.835Z,9.90
2018-03-07T10:50:16.125Z,9.70
2018-03-07T10:52:42.393Z,9.80
2018-03-07T10:55:08.663Z,9.40
2018-03-07T10:57:34.919Z,9.20
2018-03-07T11:00:01.170Z,9.10
2018-03-07T11:02:28.185Z,9.30
2018-03-07T11:04:54.459Z,9.50
2018-03-07T11:07:20.727Z,9.40
2018-03-07T11:09:47.000Z,9.50
2018-03-07T11:12:13.996Z,9.30
2018-03-07T11:14:40.365Z,9.30
2018-03-07T11:17:06.732Z,9.50
2018-03-07T11:19:33.043Z,9.50
2018-03-07T11:22:00.028Z,9.20
2018-03-07T11:24:26.388Z,9.50
2018-03-07T11:26:52.667Z,9.40
2018-03-07T11:29:18.917Z,9.40
2018-03-07T11:31:45.206Z,9.40
2018-03-07T11:34:12.218Z,9.50
2018-03-07T11:36:38.487Z,9.40
2018-03-07T11:39:05.496Z,9.50
2018-03-07T11:41:31.760Z,9.50
2018-03-07T11:43:58.034Z,9.40
2018-03-07T11:46:24.304Z,9.70
2018-03-07T11:48:51.324Z,9.60
2018-03-07T11:51:17.587Z,9.50
2018-03-07T11:53:44.618Z,9.90
2018-03-07T11:56:10.936Z,10.20
2018-03-07T11:58:37.212Z,10.40
2018-03-07T12:01:04.217Z,10.20
2018-03-07T12:03:30.572Z,9.80
2018-03-07T12:05:57.591Z,10.60
2018-03-07T12:08:23.840Z,10.10
2018-03-07T12:10:50.890Z,10.20
2018-03-07T12:13:17.896Z,10.50
2018-03-07T12:15:44.206Z,9.90
2018-03-07T12:18:10.469Z,10.50
2018-03-07T12:20:36.723Z,10.60
2018-03-07T12:23:03.788Z,10.60
2018-03-07T12:25:30.080Z,10.20
2018-03-07T12:27:56.343Z,10.30
2018-03-07T12:30:23.356Z,10.00
2018-03-07T12:32:49.626Z,9.70
2018-03-07T12:35:15.879Z,10.00
2018-03-07T12:37:42.104Z,10.20
2018-03-07T12:40:08.412Z,9.90
2018-03-07T12:42:34.700Z,9.80
2018-03-07T12:45:01.022Z,10.20
2018-03-07T12:47:27.300Z,10.20
2018-03-07T12:49:53.592Z,10.10
2018-03-07T12:52:19.852Z,10.60
2018-03-07T12:54:46.840Z,10.50
2018-03-07T12:57:13.126Z,10.40
2018-03-07T12:59:40.135Z,9.90
2018-03-07T13:02:06.394Z,10.20
2018-03-07T13:04:32.636Z,9.90
2018-03-07T13:06:59.648Z,10.50
2018-03-07T13:09:25.919Z,10.40
2018-03-07T13:11:52.964Z,10.20
2018-03-07T13:14:19.968Z,10.20
2018-03-07T13:16:46.217Z,10.50
2018-03-07T13:19:12.547Z,10.30
2018-03-07T13:21:38.828Z,10.60
2018-03-07T13:24:05.092Z,10.40
2018-03-07T13:26:31.328Z,9.80
2018-03-07T13:28:57.705Z,10.50
2018-03-07T13:31:24.699Z,10.20
2018-03-07T13:33:50.964Z,10.30
2018-03-07T13:36:17.187Z,10.00
2018-03-07T13:38:44.204Z,9.60
2018-03-07T13:41:10.487Z,9.60
2018-03-07T13:43:36.753Z,9.50
2018-03-07T13:46:03.113Z,9.80
2018-03-07T13:48:30.146Z,10.00
2018-03-07T13:50:56.432Z,10.10
2018-03-07T13:53:22.699Z,9.90
2018-03-07T13:55:48.979Z,10.20
2018-03-07T13:58:15.975Z,10.10
2018-03-07T14:00:42.242Z,10.20
2018-03-07T14:03:09.294Z,10.10
2018-03-07T14:05:36.298Z,9.90
2018-03-07T14:08:02.574Z,9.90
2018-03-07T14:10:29.572Z,9.90
2018-03-07T14:12:55.824Z,9.90
2018-03-07T14:15:22.084Z,10.00
2018-03-07T14:17:49.094Z,9.60
2018-03-07T14:20:15.343Z,9.70
2018-03-07T14:22:41.604Z,9.40
2018-03-07T14:25:07.883Z,9.50
2018-03-07T14:27:34.156Z,9.50
2018-03-07T14:30:00.474Z,9.60
2018-03-07T14:32:26.692Z,9.50
2018-03-07T14:34:53.768Z,9.80
2018-03-07T14:37:20.106Z,9.60
2018-03-07T14:39:47.148Z,9.50
2018-03-07T14:42:13.413Z,9.60
2018-03-07T14:44:39.675Z,9.60
2018-03-07T14:47:06.701Z,9.80
2018-03-07T14:49:33.005Z,9.50
2018-03-07T14:52:00.013Z,9.90
2018-03-07T14:54:27.028Z,9.80
2018-03-07T14:56:53.325Z,9.90
2018-03-07T14:59:19.574Z,10.10
2018-03-07T15:01:45.863Z,10.20
2018-03-07T15:04:12.108Z,10.00
2018-03-07T15:06:38.351Z,10.50
2018-03-07T15:09:04.648Z,10.40
2018-03-07T15:11:30.900Z,10.00
2018-03-07T15:13:57.170Z,10.20
2018-03-07T15:16:23.428Z,10.30
2018-03-07T15:18:50.688Z,10.50
2018-03-07T15:21:17.720Z,10.40
2018-03-07T15:23:44.730Z,9.90
2018-03-07T15:26:11.011Z,9.90
2018-03-07T15:28:37.260Z,10.30
2018-03-07T15:31:03.537Z,10.00
2018-03-07T15:33:29.784Z,9.90
2018-03-07T15:35:56.806Z,10.00
2018-03-07T15:38:23.060Z,9.90
2018-03-07T15:40:49.332Z,10.10
2018-03-07T15:43:15.596Z,10.10
2018-03-07T15:45:41.840Z,10.20
2018-03-07T15:48:08.847Z,9.70
2018-03-07T15:50:35.091Z,9.50
2018-03-07T15:53:01.404Z,9.60
2018-03-07T15:55:27.651Z,9.60
2018-03-07T15:57:53.914Z,9.70
2018-03-07T16:00:20.211Z,9.70
2018-03-07T16:02:46.464Z,9.80
2018-03-07T16:05:12.715Z,9.80
2018-03-07T16:07:39.715Z,9.80
2018-03-07T16:10:05.978Z,9.80
2018-03-07T16:12:32.991Z,9.50
2018-03-07T16:14:59.247Z,9.70
2018-03-07T16:17:25.527Z,9.80
2018-03-07T16:19:51.817Z,9.70
2018-03-07T16:22:18.113Z,10.00
2018-03-07T16:24:44.408Z,9.70
2018-03-07T16:27:10.751Z,9.70
2018-03-07T16:29:37.745Z,9.20
2018-03-07T16:32:03.983Z,9.30
2018-03-07T16:34:30.995Z,9.40
2018-03-07T16:36:57.275Z,9.30
2018-03-07T16:39:24.300Z,9.50
2018-03-07T16:41:50.535Z,9.70
2018-03-07T16:44:17.568Z,9.20
2018-03-07T16:46:43.817Z,9.30
2018-03-07T16:49:10.832Z,9.60
2018-03-07T16:51:37.075Z,9.40
2018-03-07T16:54:03.375Z,9.70
2018-03-07T16:56:29.693Z,9.60
2018-03-07T16:58:56.645Z,9.50
2018-03-07T17:01:22.909Z,9.50
2018-03-07T17:03:49.163Z,9.60
2018-03-07T17:06:16.147Z,9.40
2018-03-07T17:08:42.403Z,9.40
2018-03-07T17:11:08.689Z,9.40
2018-03-07T17:13:35.023Z,9.20
2018-03-07T17:16:01.279Z,9.30
2018-03-07T17:18:27.512Z,9.30
2018-03-07T17:20:53.812Z,9.20
2018-03-07T17:23:20.087Z,9.00
2018-03-07T17:25:46.418Z,9.20
2018-03-07T17:28:12.955Z,9.20
2018-03-07T17:30:39.205Z,8.90
2018-03-07T17:33:05.468Z,8.90
2018-03-07T17:35:31.842Z,8.80
2018-03-07T17:37:58.130Z,8.80
2018-03-07T17:40:24.401Z,8.90
2018-03-07T17:42:50.758Z,8.70
2018-03-07T17:45:17.776Z,8.50
2018-03-07T17:47:44.056Z,8.50
2018-03-07T17:50:10.366Z,8.50
2018-03-07T17:52:36.673Z,8.60
2018-03-07T17:55:02.940Z,8.30
2018-03-07T17:57:29.945Z,8.10
2018-03-07T17:59:56.213Z,8.20
2018-03-07T18:02:22.480Z,8.00
2018-03-07T18:04:48.773Z,8.20
2018-03-07T18:07:15.767Z,7.90
2018-03-07T18:09:42.006Z,7.90
2018-03-07T18:12:08.288Z,7.90
2018-03-07T18:14:34.616Z,8.10
2018-03-07T18:17:01.632Z,7.90
2018-03-07T18:19:27.931Z,8.10
2018-03-07T18:21:54.181Z,7.90
2018-03-07T18:24:20.444Z,7.90
2018-03-07T18:26:47.515Z,7.90
2018-03-07T18:29:13.840Z,7.60
2018-03-07T18:31:40.167Z,7.80
2018-03-07T18:34:06.458Z,7.90
2018-03-07T18:36:32.731Z,7.50
2018-03-07T18:38:59.053Z,7.60
2018-03-07T18:41:25.327Z,7.80
2018-03-07T18:43:51.575Z,7.70
2018-03-07T18:46:17.831Z,7.80
2018-03-07T18:48:44.826Z,7.00
2018-03-07T18:51:11.091Z,7.10
2018-03-07T18:53:38.103Z,7.10
2018-03-07T18:56:04.407Z,7.30
2018-03-07T18:58:30.658Z,7.20
2018-03-07T19:00:56.935Z,7.10
2018-03-07T19:03:23.947Z,7.00
2018-03-07T19:05:51.052Z,7.20
2018-03-07T19:08:17.315Z,7.10
2018-03-07T19:10:43.626Z,6.80
2018-03-07T19:13:09.904Z,7.00
2018-03-07T19:15:36.139Z,7.00
2018-03-07T19:18:02.424Z,7.00
2018-03-07T19:20:28.671Z,6.70
2018-03-07T19:22:55.012Z,7.00
2018-03-07T19:25:21.264Z,6.70
2018-03-07T19:27:48.279Z,6.70
2018-03-07T19:30:14.570Z,7.20
2018-03-07T19:32:40.833Z,6.70
2018-03-07T19:35:07.095Z,6.90
2018-03-07T19:37:33.343Z,6.90
2018-03-07T19:40:00.380Z,6.90
2018-03-07T19:42:27.396Z,7.10
2018-03-07T19:44:53.646Z,6.80
2018-03-07T19:47:20.673Z,7.10
2018-03-07T19:49:46.954Z,7.00
2018-03-07T19:52:13.283Z,7.20
2018-03-07T19:54:39.540Z,7.10
2018-03-07T19:57:05.818Z,7.10
2018-03-07T19:59:32.843Z,7.20
2018-03-07T20:01:59.104Z,7.20
2018-03-07T20:04:26.107Z,7.20
2018-03-07T20:06:52.409Z,7.20
2018-03-07T20:09:18.680Z,7.20
2018-03-07T20:11:44.923Z,6.70
2018-03-07T20:14:11.183Z,7.30
2018-03-07T20:16:37.488Z,7.10
2018-03-07T20:19:03.735Z,7.30
2018-03-07T20:21:30.033Z,7.30
2018-03-07T20:23:56.288Z,7.30
2018-03-07T20:26:23.287Z,7.10
2018-03-07T20:28:49.571Z,7.20
2018-03-07T20:31:16.568Z,7.00
2018-03-07T20:33:42.842Z,7.10
2018-03-07T20:36:09.848Z,7.30
2018-03-07T20:38:36.179Z,7.00
2018-03-07T20:41:02.431Z,7.20
2018-03-07T20:43:28.696Z,7.30
2018-03-07T20:45:54.970Z,7.10
2018-03-07T20:48:21.275Z,7.30
2018-03-07T20:50:47.624Z,7.40
2018-03-07T20:53:13.919Z,7.40
2018-03-07T20:55:40.152Z,7.10
2018-03-07T20:58:06.440Z,7.30
2018-03-07T21:00:33.713Z,7.20
2018-03-07T21:03:00.699Z,7.50
2018-03-07T21:05:26.990Z,7.00
2018-03-07T21:07:53.992Z,7.50
2018-03-07T21:10:20.260Z,7.20
2018-03-07T21:12:47.250Z,7.00
2018-03-07T21:15:13.543Z,7.20
2018-03-07T21:17:39.771Z,7.20
2018-03-07T21:20:06.819Z,6.80
2018-03-07T21:22:33.812Z,6.60
2018-03-07T21:25:00.057Z,6.60
2018-03-07T21:27:26.344Z,6.30
2018-03-07T21:29:52.642Z,6.30
2018-03-07T21:32:19.659Z,6.20
2018-03-07T21:34:45.918Z,6.20
2018-03-07T21:37:12.212Z,6.10
2018-03-07T21:39:38.469Z,6.20
2018-03-07T21:42:04.737Z,6.00
2018-03-07T21:44:31.017Z,6.10
2018-03-07T21:46:57.372Z,6.10
2018-03-07T21:49:23.620Z,6.20
2018-03-07T21:51:49.921Z,6.10
2018-03-07T21:54:16.183Z,6.00
2018-03-07T21:56:42.445Z,5.90
2018-03-07T21:59:08.725Z,6.30
2018-03-07T22:01:34.992Z,6.20
2018-03-07T22:04:01.277Z,6.30
2018-03-07T22:06:27.552Z,6.10
2018-03-07T22:08:53.816Z,6.00
2018-03-07T22:11:20.103Z,6.00
2018-03-07T22:13:46.376Z,6.10
2018-03-07T22:16:12.628Z,6.40
2018-03-07T22:18:38.884Z,6.30
2018-03-07T22:21:05.138Z,6.40
2018-03-07T22:23:31.438Z,6.40
2018-03-07T22:25:57.723Z,6.30
2018-03-07T22:28:24.004Z,6.60
2018-03-07T22:30:50.244Z,6.70
2018-03-07T22:33:16.512Z,6.60
2018-03-07T22:35:42.774Z,6.40
2018-03-07T22:38:09.752Z,6.80
2018-03-07T22:40:36.044Z,6.40
2018-03-07T22:43:03.128Z,6.30
2018-03-07T22:45:29.414Z,6.50
2018-03-07T22:47:55.696Z,6.50
2018-03-07T22:50:21.993Z,6.40
2018-03-07T22:52:48.275Z,6.80
2018-03-07T22:55:14.567Z,6.60
2018-03-07T22:57:40.860Z,6.70
2018-03-07T23:00:13.138Z,6.90
2018-03-07T23:02:40.169Z,6.70
2018-03-07T23:05:06.443Z,6.80
2018-03-07T23:07:32.796Z,6.80
2018-03-07T23:09:59.051Z,6.80
2018-03-07T23:12:25.318Z,6.80
2018-03-07T23:14:52.316Z,6.60
2018-03-07T23:17:18.681Z,6.70
2018-03-07T23:19:45.668Z,6.60
2018-03-07T23:22:11.914Z,6.80
2018-03-07T23:24:38.209Z,6.80
2018-03-07T23:27:05.234Z,6.90
2018-03-07T23:29:32.271Z,6.90
2018-03-07T23:31:58.676Z,6.80
2018-03-07T23:34:24.939Z,6.70
2018-03-07T23:36:51.170Z,6.90
2018-03-07T23:39:17.413Z,6.80
2018-03-07T23:41:44.446Z,7.10
2018-03-07T23:44:10.683Z,7.00
2018-03-07T23:46:36.916Z,6.70
2018-03-07T23:49:03.887Z,6.90
2018-03-07T23:51:30.164Z,7.00
2018-03-07T23:53:56.443Z,7.10
2018-03-07T23:56:22.694Z,6.90
2018-03-07T23:58:48.979Z,7.10
